Time;durP1;ratioP1;P1;durP2;ratioP2;P2;SDS_P1;SDS_P2;PMS_P1;PMS_P2;Temp;Humidity;BMP_temperature;BMP_pressure;BME280_temperature;BME280_humidity;BME280_pressure;Samples;Min_cycle;Max_cycle;Signal;HPM_P1;HPM_P2
2021/08/23 00:00:20;;;;;;;38.55;25.65;;;;;;;;;;5022941;28;20041;-76
2021/08/23 00:02:47;;;;;;;43.63;25.17;;;;;;;;;;5040987;28;20080;-76
2021/08/23 00:05:14;;;;;;;40.25;28.10;;;;;;;;;;5030180;28;20590;-76
2021/08/23 00:07:41;;;;;;;40.28;26.80;;;;;;;;;;5033068;28;20037;-76
2021/08/23 00:10:09;;;;;;;42.60;26.67;;;;;;;;;;5019109;28;20041;-76
2021/08/23 00:12:36;;;;;;;42.95;25.00;;;;;;;;;;5038447;28;20051;-82
2021/08/23 00:15:08;;;;;;;39.97;23.27;;;;;;;;;;5041237;28;20051;-79
2021/08/23 00:23:10;;;;;;;34.40;19.92;;;;;;;;;;5097476;27;20185;-72
2021/08/23 00:25:38;;;;;;;31.27;20.40;;;;;;;;;;5138153;27;20042;-72
2021/08/23 00:28:08;;;;;;;36.20;21.75;;;;;;;;;;5120965;27;20117;-74
2021/08/23 00:30:36;;;;;;;36.85;22.73;;;;;;;;;;5139156;27;20046;-75
2021/08/23 00:33:04;;;;;;;34.30;22.48;;;;;;;;;;5097102;27;20047;-75
2021/08/23 00:35:33;;;;;;;41.67;23.42;;;;;;;;;;5098093;27;20047;-73
2021/08/23 00:38:03;;;;;;;41.70;23.90;;;;;;;;;;5106539;27;20046;-73
2021/08/23 00:40:30;;;;;;;39.53;25.38;;;;;;;;;;5126517;27;20043;-74
2021/08/23 00:42:58;;;;;;;38.53;24.27;;;;;;;;;;5126457;27;20076;-74
2021/08/23 00:45:26;;;;;;;37.03;25.05;;;;;;;;;;5083902;27;20052;-74
2021/08/23 00:47:53;;;;;;;39.15;24.52;;;;;;;;;;5077362;28;20121;-73
2021/08/23 00:58:13;;;;;;;37.33;24.60;;;;;;;;;;4943502;27;20417;-75
2021/08/23 01:00:46;;;;;;;37.40;25.05;;;;;;;;;;5023115;28;20112;-76
2021/08/23 01:03:32;;;;;;;37.67;24.50;;;;;;;;;;5046088;28;20045;-74
2021/08/23 01:06:01;;;;;;;36.53;24.35;;;;;;;;;;5037237;28;20123;-74
2021/08/23 01:08:47;;;;;;;39.65;23.95;;;;;;;;;;4991684;28;20450;-76
2021/08/23 01:11:19;;;;;;;40.30;24.33;;;;;;;;;;5028848;28;20037;-74
2021/08/23 01:13:50;;;;;;;37.58;24.13;;;;;;;;;;5035520;28;20037;-75
2021/08/23 01:16:18;;;;;;;36.30;23.70;;;;;;;;;;5033374;28;20131;-75
2021/08/23 01:18:46;;;;;;;38.00;24.98;;;;;;;;;;5046652;28;20128;-76
2021/08/23 01:21:19;;;;;;;34.20;23.75;;;;;;;;;;5039566;28;20099;-75
2021/08/23 01:23:47;;;;;;;36.63;23.80;;;;;;;;;;5040849;28;20033;-75
2021/08/23 01:26:19;;;;;;;40.63;26.52;;;;;;;;;;5056174;28;20510;-74
2021/08/23 01:28:58;;;;;;;35.08;24.77;;;;;;;;;;5052102;28;20064;-75
2021/08/23 01:31:56;;;;;;;37.70;23.27;;;;;;;;;;5036752;28;20553;-74
2021/08/23 01:34:25;;;;;;;41.28;25.50;;;;;;;;;;5035344;28;20507;-73
2021/08/23 01:36:53;;;;;;;41.92;26.73;;;;;;;;;;5038061;28;20056;-73
2021/08/23 01:39:21;;;;;;;40.38;26.58;;;;;;;;;;5043259;28;20091;-73
2021/08/23 01:41:49;;;;;;;42.83;26.38;;;;;;;;;;5057525;28;20048;-74
2021/08/23 01:44:16;;;;;;;36.33;26.95;;;;;;;;;;5056149;28;20114;-74
2021/08/23 01:46:43;;;;;;;36.08;23.35;;;;;;;;;;5051725;28;20068;-77
2021/08/23 01:49:10;;;;;;;41.05;24.13;;;;;;;;;;5035615;28;20045;-76
2021/08/23 01:51:37;;;;;;;36.88;22.65;;;;;;;;;;5037729;28;20064;-75
2021/08/23 01:54:05;;;;;;;35.60;23.20;;;;;;;;;;5032926;28;20041;-75
2021/08/23 01:56:32;;;;;;;32.20;21.40;;;;;;;;;;5037148;28;20632;-76
2021/08/23 01:59:00;;;;;;;38.13;22.40;;;;;;;;;;5036204;28;20065;-74
2021/08/23 02:01:31;;;;;;;37.90;23.67;;;;;;;;;;5037868;28;20049;-74
2021/08/23 02:03:59;;;;;;;38.50;22.40;;;;;;;;;;5038160;28;20041;-75
2021/08/23 02:06:26;;;;;;;34.80;22.35;;;;;;;;;;5038889;28;20044;-78
2021/08/23 02:08:53;;;;;;;34.05;22.55;;;;;;;;;;5028487;28;20133;-74
2021/08/23 02:11:25;;;;;;;35.65;22.10;;;;;;;;;;5022711;28;20064;-75
2021/08/23 02:13:55;;;;;;;34.72;22.48;;;;;;;;;;5024814;28;20037;-76
2021/08/23 02:16:22;;;;;;;37.25;23.92;;;;;;;;;;5020431;28;20037;-76
2021/08/23 02:18:49;;;;;;;38.42;22.80;;;;;;;;;;5024982;28;20452;-75
2021/08/23 02:21:19;;;;;;;35.60;22.85;;;;;;;;;;5022090;28;20045;-76
2021/08/23 02:23:48;;;;;;;40.03;27.27;;;;;;;;;;5006832;28;20077;-76
2021/08/23 02:26:15;;;;;;;45.78;25.98;;;;;;;;;;5023549;28;20041;-76
2021/08/23 02:28:42;;;;;;;41.22;24.65;;;;;;;;;;5025835;28;20037;-76
2021/08/23 02:31:10;;;;;;;34.95;23.30;;;;;;;;;;5023692;28;20111;-78
2021/08/23 02:33:37;;;;;;;38.05;25.35;;;;;;;;;;5017697;28;20517;-75
2021/08/23 02:36:04;;;;;;;36.83;25.70;;;;;;;;;;5026395;28;20068;-75
2021/08/23 02:38:31;;;;;;;39.58;25.13;;;;;;;;;;5025005;28;20053;-78
2021/08/23 02:40:58;;;;;;;40.55;25.40;;;;;;;;;;5028838;28;20056;-75
2021/08/23 02:43:25;;;;;;;43.17;25.70;;;;;;;;;;5033718;28;20037;-75
2021/08/23 02:45:52;;;;;;;41.20;27.30;;;;;;;;;;5025053;28;20384;-76
2021/08/23 02:48:19;;;;;;;45.83;29.23;;;;;;;;;;5034119;28;20500;-75
2021/08/23 02:50:46;;;;;;;40.38;25.08;;;;;;;;;;5023862;28;21393;-76
2021/08/23 02:53:15;;;;;;;42.95;25.92;;;;;;;;;;5035056;28;20175;-77
2021/08/23 02:55:42;;;;;;;38.22;25.33;;;;;;;;;;5023639;28;20037;-75
2021/08/23 02:58:10;;;;;;;36.05;24.35;;;;;;;;;;5033722;28;20049;-76
2021/08/23 03:00:37;;;;;;;36.75;23.90;;;;;;;;;;5025409;28;20183;-75
2021/08/23 03:03:04;;;;;;;40.25;24.30;;;;;;;;;;5037134;28;20099;-75
2021/08/23 03:05:31;;;;;;;28.33;19.33;;;;;;;;;;5024587;28;20054;-76
2021/08/23 03:07:58;;;;;;;24.33;17.45;;;;;;;;;;5036013;28;20049;-75
2021/08/23 03:10:25;;;;;;;27.20;16.67;;;;;;;;;;5024496;28;20121;-75
2021/08/23 03:12:53;;;;;;;24.30;15.48;;;;;;;;;;5025185;28;20044;-77
2021/08/23 03:15:21;;;;;;;26.80;15.57;;;;;;;;;;5023077;28;20033;-75
2021/08/23 03:17:49;;;;;;;23.23;15.98;;;;;;;;;;5024328;28;20033;-74
2021/08/23 03:20:16;;;;;;;25.55;15.93;;;;;;;;;;5024115;28;20042;-75
2021/08/23 03:22:43;;;;;;;23.23;14.57;;;;;;;;;;5024693;28;20053;-75
2021/08/23 03:25:10;;;;;;;18.65;14.50;;;;;;;;;;5022677;28;20052;-76
2021/08/23 03:27:37;;;;;;;22.38;15.27;;;;;;;;;;5025007;28;20049;-75
2021/08/23 03:30:05;;;;;;;25.38;16.67;;;;;;;;;;5022858;28;20044;-75
2021/08/23 03:32:33;;;;;;;27.58;17.83;;;;;;;;;;5022823;28;20049;-76
2021/08/23 03:35:00;;;;;;;25.58;17.65;;;;;;;;;;5024264;28;20060;-75
2021/08/23 03:37:29;;;;;;;27.52;18.17;;;;;;;;;;5038953;28;20526;-75
2021/08/23 03:39:56;;;;;;;26.10;18.27;;;;;;;;;;5022456;28;20094;-75
2021/08/23 03:42:23;;;;;;;24.30;16.92;;;;;;;;;;5026764;28;20060;-75
2021/08/23 03:44:51;;;;;;;24.02;17.33;;;;;;;;;;5032731;28;20508;-75
2021/08/23 03:47:18;;;;;;;25.63;16.80;;;;;;;;;;5025875;28;20463;-77
2021/08/23 03:49:45;;;;;;;26.85;17.67;;;;;;;;;;5035622;28;20041;-75
2021/08/23 03:52:15;;;;;;;27.55;17.23;;;;;;;;;;5024881;28;20040;-76
2021/08/23 03:54:42;;;;;;;28.95;17.35;;;;;;;;;;5038652;28;20033;-75
2021/08/23 03:57:09;;;;;;;26.60;18.63;;;;;;;;;;5024369;28;20057;-75
2021/08/23 03:59:36;;;;;;;27.88;17.38;;;;;;;;;;5033542;28;20103;-76
2021/08/23 04:02:03;;;;;;;22.10;17.35;;;;;;;;;;5025976;28;20111;-76
2021/08/23 04:04:33;;;;;;;27.20;18.40;;;;;;;;;;5033395;28;20576;-75
2021/08/23 04:07:00;;;;;;;27.52;19.00;;;;;;;;;;5023508;28;20087;-75
2021/08/23 04:09:27;;;;;;;22.10;17.92;;;;;;;;;;5034545;28;20052;-75
2021/08/23 04:11:54;;;;;;;28.27;19.45;;;;;;;;;;5022007;28;20045;-76
2021/08/23 04:14:21;;;;;;;24.77;17.33;;;;;;;;;;5031972;28;20061;-76
2021/08/23 04:16:48;;;;;;;23.23;18.27;;;;;;;;;;5042419;28;20048;-75
2021/08/23 04:19:15;;;;;;;27.88;18.83;;;;;;;;;;5018633;28;20048;-75
2021/08/23 04:21:42;;;;;;;25.08;18.33;;;;;;;;;;5025895;28;20080;-75
2021/08/23 04:24:09;;;;;;;29.33;17.67;;;;;;;;;;5031786;28;20041;-75
2021/08/23 04:26:39;;;;;;;23.27;18.42;;;;;;;;;;5025651;28;20395;-75
2021/08/23 04:29:06;;;;;;;25.85;18.67;;;;;;;;;;5032100;28;20046;-75
2021/08/23 04:31:34;;;;;;;28.30;18.58;;;;;;;;;;5037942;28;20097;-76
2021/08/23 04:34:01;;;;;;;27.63;17.88;;;;;;;;;;5041166;28;20083;-79
2021/08/23 04:36:28;;;;;;;24.65;18.27;;;;;;;;;;5036473;28;20056;-75
2021/08/23 04:38:56;;;;;;;24.55;17.77;;;;;;;;;;5021854;28;20553;-75
2021/08/23 04:41:23;;;;;;;24.95;17.70;;;;;;;;;;5031429;28;20530;-75
2021/08/23 04:43:50;;;;;;;25.85;17.35;;;;;;;;;;5040413;28;20095;-79
2021/08/23 04:46:18;;;;;;;26.10;17.67;;;;;;;;;;5030446;28;20096;-75
2021/08/23 04:48:45;;;;;;;21.40;16.67;;;;;;;;;;5038478;28;20086;-75
2021/08/23 04:51:12;;;;;;;23.73;16.63;;;;;;;;;;5033985;28;20041;-76
2021/08/23 04:53:39;;;;;;;22.33;17.27;;;;;;;;;;5022905;28;20056;-76
2021/08/23 04:56:16;;;;;;;23.27;17.30;;;;;;;;;;5015883;28;20132;-75
2021/08/23 04:58:44;;;;;;;26.58;18.17;;;;;;;;;;5023056;28;20045;-75
2021/08/23 05:01:12;;;;;;;26.73;17.15;;;;;;;;;;5032170;28;20094;-75
2021/08/23 05:03:40;;;;;;;23.02;16.67;;;;;;;;;;5023437;28;20041;-75
2021/08/23 05:06:07;;;;;;;21.75;16.60;;;;;;;;;;5032257;28;20526;-76
2021/08/23 05:08:34;;;;;;;23.77;18.10;;;;;;;;;;5021048;28;20049;-75
2021/08/23 05:11:01;;;;;;;21.80;17.05;;;;;;;;;;5028114;28;20545;-75
2021/08/23 05:13:28;;;;;;;21.77;16.42;;;;;;;;;;5028768;28;20033;-76
2021/08/23 05:15:57;;;;;;;24.33;16.65;;;;;;;;;;5032148;28;20048;-75
2021/08/23 05:18:24;;;;;;;23.15;16.23;;;;;;;;;;5025740;28;20087;-76
2021/08/23 05:20:51;;;;;;;21.00;15.50;;;;;;;;;;5027697;28;20098;-76
2021/08/23 05:23:18;;;;;;;20.15;16.02;;;;;;;;;;5028131;28;20044;-75
2021/08/23 05:25:46;;;;;;;23.77;16.77;;;;;;;;;;5025530;28;20050;-75
2021/08/23 05:28:13;;;;;;;21.60;17.15;;;;;;;;;;5010269;28;20049;-78
2021/08/23 05:30:40;;;;;;;23.42;16.48;;;;;;;;;;5025229;28;20056;-75
2021/08/23 05:33:07;;;;;;;23.10;16.80;;;;;;;;;;4988714;28;20070;-75
2021/08/23 05:35:37;;;;;;;21.63;17.17;;;;;;;;;;5027858;28;20080;-79
2021/08/23 05:38:04;;;;;;;20.63;16.35;;;;;;;;;;5033654;28;20129;-76
2021/08/23 05:40:32;;;;;;;22.35;16.70;;;;;;;;;;5035657;28;20052;-75
2021/08/23 05:43:01;;;;;;;23.55;17.60;;;;;;;;;;5031951;28;20076;-74
2021/08/23 05:45:29;;;;;;;22.77;16.27;;;;;;;;;;5018338;28;20050;-75
2021/08/23 05:47:57;;;;;;;22.77;16.38;;;;;;;;;;5029167;28;20075;-77
2021/08/23 05:50:24;;;;;;;23.02;16.45;;;;;;;;;;5043344;28;20037;-75
2021/08/23 05:52:51;;;;;;;24.95;17.25;;;;;;;;;;5034581;28;20499;-74
2021/08/23 05:55:21;;;;;;;23.58;16.63;;;;;;;;;;5023431;28;20049;-75
2021/08/23 05:57:48;;;;;;;22.17;16.80;;;;;;;;;;5035353;28;20051;-74
2021/08/23 06:00:17;;;;;;;21.58;17.55;;;;;;;;;;5042343;28;20053;-75
2021/08/23 06:02:45;;;;;;;22.25;16.65;;;;;;;;;;5029368;28;20042;-75
2021/08/23 06:05:12;;;;;;;23.08;17.30;;;;;;;;;;5028245;28;20040;-76
2021/08/23 06:07:40;;;;;;;21.65;16.98;;;;;;;;;;5032810;28;20123;-75
2021/08/23 06:10:11;;;;;;;22.52;16.42;;;;;;;;;;5024625;28;20051;-75
2021/08/23 06:12:38;;;;;;;21.70;17.13;;;;;;;;;;5035229;28;20160;-75
2021/08/23 06:15:05;;;;;;;26.90;17.08;;;;;;;;;;5025492;28;20053;-76
2021/08/23 06:17:32;;;;;;;22.23;16.75;;;;;;;;;;5037206;28;20140;-75
2021/08/23 06:19:59;;;;;;;21.80;16.55;;;;;;;;;;5026373;28;20094;-75
2021/08/23 06:22:27;;;;;;;21.00;16.20;;;;;;;;;;5034618;28;20477;-75
2021/08/23 06:24:54;;;;;;;21.92;17.05;;;;;;;;;;5008124;28;20037;-75
2021/08/23 06:27:22;;;;;;;21.48;16.98;;;;;;;;;;5034687;28;20056;-76
2021/08/23 06:29:49;;;;;;;22.25;16.83;;;;;;;;;;5027394;28;20053;-75
2021/08/23 06:32:16;;;;;;;22.48;17.42;;;;;;;;;;5030878;28;20123;-76
2021/08/23 06:34:45;;;;;;;21.02;15.73;;;;;;;;;;5029787;28;20049;-77
2021/08/23 06:37:12;;;;;;;21.85;16.60;;;;;;;;;;5031455;28;20049;-76
2021/08/23 06:39:39;;;;;;;20.42;16.75;;;;;;;;;;5034945;28;20049;-75
2021/08/23 06:42:06;;;;;;;22.85;17.27;;;;;;;;;;5031554;28;20915;-75
2021/08/23 06:44:33;;;;;;;20.33;14.73;;;;;;;;;;5045106;28;20455;-76
2021/08/23 06:47:01;;;;;;;21.13;15.90;;;;;;;;;;5044894;28;20045;-75
2021/08/23 06:49:28;;;;;;;20.05;13.68;;;;;;;;;;5045699;28;20548;-75
2021/08/23 06:51:55;;;;;;;20.15;13.77;;;;;;;;;;5043153;28;20525;-75
2021/08/23 06:54:22;;;;;;;17.23;14.00;;;;;;;;;;5042956;28;20183;-78
2021/08/23 06:56:51;;;;;;;20.95;13.57;;;;;;;;;;5027037;28;20052;-75
2021/08/23 06:59:18;;;;;;;20.25;14.05;;;;;;;;;;5044557;28;20048;-75
2021/08/23 07:01:45;;;;;;;19.50;13.70;;;;;;;;;;5050439;28;20037;-75
2021/08/23 07:04:12;;;;;;;20.88;14.50;;;;;;;;;;5044647;28;20051;-75
2021/08/23 07:06:39;;;;;;;18.50;14.55;;;;;;;;;;5024679;28;20053;-76
2021/08/23 07:09:06;;;;;;;24.83;14.65;;;;;;;;;;5043285;28;20040;-75
2021/08/23 07:11:33;;;;;;;20.85;15.15;;;;;;;;;;5036185;28;20470;-75
2021/08/23 07:14:00;;;;;;;18.45;14.07;;;;;;;;;;5045218;28;20045;-75
2021/08/23 07:16:27;;;;;;;23.95;14.95;;;;;;;;;;5042798;28;20033;-76
2021/08/23 07:18:54;;;;;;;18.45;14.73;;;;;;;;;;5042863;28;24900;-75
2021/08/23 07:21:21;;;;;;;21.02;14.63;;;;;;;;;;5043193;28;20041;-75
2021/08/23 07:23:48;;;;;;;22.08;15.15;;;;;;;;;;5043278;28;21736;-76
2021/08/23 07:26:15;;;;;;;20.30;15.30;;;;;;;;;;5042855;28;20037;-74
2021/08/23 07:28:45;;;;;;;19.52;14.73;;;;;;;;;;5046285;28;20033;-75
2021/08/23 07:31:12;;;;;;;21.73;14.35;;;;;;;;;;5047980;28;20179;-74
2021/08/23 07:33:39;;;;;;;20.02;15.25;;;;;;;;;;5042573;28;20120;-75
2021/08/23 07:36:06;;;;;;;24.33;14.98;;;;;;;;;;5044226;28;20118;-76
2021/08/23 07:38:33;;;;;;;20.98;15.18;;;;;;;;;;5044410;28;20048;-75
2021/08/23 07:41:03;;;;;;;20.65;15.43;;;;;;;;;;5025811;28;20124;-75
2021/08/23 07:43:31;;;;;;;18.42;14.57;;;;;;;;;;5044061;28;20882;-75
2021/08/23 07:45:58;;;;;;;23.05;15.40;;;;;;;;;;5042852;28;20053;-74
2021/08/23 07:48:26;;;;;;;20.63;15.23;;;;;;;;;;5044347;28;20041;-74
2021/08/23 07:50:53;;;;;;;17.80;14.75;;;;;;;;;;5043867;28;20083;-76
2021/08/23 07:53:20;;;;;;;20.35;14.98;;;;;;;;;;5042730;28;20033;-76
2021/08/23 07:55:47;;;;;;;19.65;14.85;;;;;;;;;;5043258;28;20370;-74
2021/08/23 07:58:14;;;;;;;23.25;15.00;;;;;;;;;;5044008;28;20068;-74
2021/08/23 08:00:41;;;;;;;21.02;15.85;;;;;;;;;;5025393;28;20068;-76
2021/08/23 08:03:08;;;;;;;22.48;15.82;;;;;;;;;;5042003;28;20044;-74
2021/08/23 08:05:37;;;;;;;24.13;15.90;;;;;;;;;;5041755;28;20171;-75
2021/08/23 08:08:08;;;;;;;24.23;16.27;;;;;;;;;;5042406;28;20048;-75
2021/08/23 08:10:39;;;;;;;21.98;15.68;;;;;;;;;;5043588;28;20163;-75
2021/08/23 08:13:10;;;;;;;22.55;15.85;;;;;;;;;;5043696;28;20058;-74
2021/08/23 08:15:39;;;;;;;25.38;16.73;;;;;;;;;;5043700;28;20037;-75
2021/08/23 08:18:09;;;;;;;20.92;16.08;;;;;;;;;;5042982;28;20037;-75
2021/08/23 08:20:36;;;;;;;24.35;15.90;;;;;;;;;;5041806;28;20680;-79
2021/08/23 08:23:03;;;;;;;21.95;16.45;;;;;;;;;;5043641;28;20046;-74
2021/08/23 08:25:30;;;;;;;22.42;16.27;;;;;;;;;;5040828;28;20037;-75
2021/08/23 08:27:57;;;;;;;23.45;16.75;;;;;;;;;;5043943;28;20048;-74
2021/08/23 08:30:24;;;;;;;23.02;16.45;;;;;;;;;;5043681;28;20037;-74
2021/08/23 08:32:51;;;;;;;22.65;16.10;;;;;;;;;;5043346;28;20045;-75
2021/08/23 08:35:22;;;;;;;22.27;16.60;;;;;;;;;;5042034;28;20044;-74
2021/08/23 08:37:49;;;;;;;21.60;16.40;;;;;;;;;;5039014;28;20167;-74
2021/08/23 08:40:16;;;;;;;24.48;16.60;;;;;;;;;;5031460;28;20427;-75
2021/08/23 08:42:43;;;;;;;23.08;16.90;;;;;;;;;;5025411;28;20052;-75
2021/08/23 08:45:12;;;;;;;22.90;16.38;;;;;;;;;;5042165;28;20040;-75
2021/08/23 08:47:44;;;;;;;23.13;16.02;;;;;;;;;;5043404;28;20575;-75
2021/08/23 08:50:15;;;;;;;21.85;15.63;;;;;;;;;;5043039;28;20068;-75
2021/08/23 08:52:46;;;;;;;24.10;16.15;;;;;;;;;;5043386;28;20037;-74
2021/08/23 08:55:15;;;;;;;19.95;14.75;;;;;;;;;;5041397;28;20041;-76
2021/08/23 08:57:43;;;;;;;22.65;15.25;;;;;;;;;;5042877;28;20045;-78
2021/08/23 09:00:10;;;;;;;20.38;14.63;;;;;;;;;;5043628;28;20048;-75
2021/08/23 09:02:38;;;;;;;21.77;15.13;;;;;;;;;;5041939;28;20104;-74
2021/08/23 09:05:18;;;;;;;23.52;15.18;;;;;;;;;;5042508;28;20071;-74
2021/08/23 09:07:49;;;;;;;22.88;14.40;;;;;;;;;;5025197;28;20162;-75
2021/08/23 09:10:21;;;;;;;21.10;14.45;;;;;;;;;;5041275;28;20033;-76
2021/08/23 09:13:14;;;;;;;22.20;14.60;;;;;;;;;;5041796;28;20132;-75
2021/08/23 09:15:57;;;;;;;18.88;14.27;;;;;;;;;;5043068;28;20461;-78
2021/08/23 09:18:29;;;;;;;19.38;13.57;;;;;;;;;;5042641;28;20041;-74
2021/08/23 09:21:05;;;;;;;19.55;13.40;;;;;;;;;;5047058;28;20045;-75
2021/08/23 09:23:38;;;;;;;19.08;14.15;;;;;;;;;;5047064;28;20048;-75
2021/08/23 09:26:13;;;;;;;20.95;14.57;;;;;;;;;;5047009;28;20041;-74
2021/08/23 09:28:42;;;;;;;18.02;13.02;;;;;;;;;;5046880;28;20047;-75
2021/08/23 09:31:12;;;;;;;21.80;13.02;;;;;;;;;;5046917;28;20048;-75
2021/08/23 09:33:46;;;;;;;16.90;11.13;;;;;;;;;;5045164;28;20134;-75
2021/08/23 09:36:20;;;;;;;16.13;10.38;;;;;;;;;;5045182;28;20391;-74
2021/08/23 09:39:25;;;;;;;18.20;10.55;;;;;;;;;;5046947;28;20048;-74
2021/08/23 09:41:52;;;;;;;16.38;10.95;;;;;;;;;;5034868;28;20045;-75
2021/08/23 09:44:19;;;;;;;14.45;10.02;;;;;;;;;;5046706;28;20068;-75
2021/08/23 09:46:57;;;;;;;18.95;11.10;;;;;;;;;;5045348;28;20045;-74
2021/08/23 09:49:34;;;;;;;16.90;10.30;;;;;;;;;;5045225;28;20044;-74
2021/08/23 09:52:02;;;;;;;15.88;11.30;;;;;;;;;;5044311;28;20490;-75
2021/08/23 09:54:30;;;;;;;16.67;9.45;;;;;;;;;;5046470;28;20044;-74
2021/08/23 09:56:57;;;;;;;21.45;10.68;;;;;;;;;;5044757;28;20119;-74
2021/08/23 09:59:25;;;;;;;17.05;11.07;;;;;;;;;;5046566;28;20065;-75
2021/08/23 10:01:56;;;;;;;16.40;10.27;;;;;;;;;;5045956;28;20047;-76
2021/08/23 10:04:25;;;;;;;16.17;9.85;;;;;;;;;;5031291;28;20091;-75
2021/08/23 10:06:53;;;;;;;17.58;9.07;;;;;;;;;;5036661;28;20099;-77
2021/08/23 10:09:23;;;;;;;15.43;9.93;;;;;;;;;;5034206;28;20694;-76
2021/08/23 10:11:54;;;;;;;14.00;9.05;;;;;;;;;;5032019;28;20041;-75
2021/08/23 10:14:21;;;;;;;15.68;9.85;;;;;;;;;;5037355;28;20049;-75
2021/08/23 10:16:49;;;;;;;16.52;9.82;;;;;;;;;;5029309;28;20105;-75
2021/08/23 10:19:17;;;;;;;13.55;9.00;;;;;;;;;;5032946;28;20048;-74
2021/08/23 10:21:49;;;;;;;14.50;8.70;;;;;;;;;;5036765;28;20072;-73
2021/08/23 10:24:30;;;;;;;18.08;9.85;;;;;;;;;;5032404;28;20045;-75
2021/08/23 10:26:59;;;;;;;17.85;9.98;;;;;;;;;;5030934;28;20045;-74
2021/08/23 10:29:36;;;;;;;;;;;;;;;;;;5035911;28;20048;-74
2021/08/23 10:32:08;;;;;;;17.20;9.25;;;;;;;;;;5033146;28;20379;-73
2021/08/23 10:34:37;;;;;;;16.45;8.88;;;;;;;;;;5028034;28;20064;-75
2021/08/23 10:37:18;;;;;;;13.80;9.13;;;;;;;;;;5039047;28;20048;-75
2021/08/23 10:39:45;;;;;;;15.88;8.85;;;;;;;;;;5031388;28;20044;-75
2021/08/23 10:42:16;;;;;;;16.55;9.65;;;;;;;;;;5026184;28;20260;-75
2021/08/23 10:44:44;;;;;;;14.18;8.93;;;;;;;;;;4996426;28;20076;-76
2021/08/23 10:47:15;;;;;;;21.45;10.73;;;;;;;;;;5013037;28;20829;-75
2021/08/23 10:49:45;;;;;;;15.18;8.65;;;;;;;;;;4999597;28;20056;-74
2021/08/23 10:52:18;;;;;;;14.57;8.40;;;;;;;;;;5000220;28;20084;-74
2021/08/23 10:54:49;;;;;;;17.20;9.23;;;;;;;;;;5000477;28;20800;-75
2021/08/23 11:00:19;;;;;;;15.13;9.27;;;;;;;;;;5072825;27;20375;-75
2021/08/23 11:02:46;;;;;;;14.45;9.35;;;;;;;;;;5051515;28;20051;-78
2021/08/23 11:05:21;;;;;;;19.20;9.18;;;;;;;;;;5064870;28;20056;-76
2021/08/23 11:07:59;;;;;;;15.32;9.18;;;;;;;;;;5054191;28;20056;-77
2021/08/23 11:10:28;;;;;;;16.15;8.50;;;;;;;;;;5067463;28;20060;-76
2021/08/23 11:18:12;;;;;;;15.30;8.05;;;;;;;;;;5419103;22;20067;-77
2021/08/23 11:20:40;;;;;;;11.95;8.63;;;;;;;;;;5055680;28;20139;-84
2021/08/23 11:23:08;;;;;;;;;;;;;;;;;;5040467;28;20421;-87
2021/08/23 11:25:56;;;;;;;14.02;8.43;;;;;;;;;;5039961;28;19928;-84
2021/08/23 11:28:31;;;;;;;13.95;8.48;;;;;;;;;;5052656;28;20097;-89
2021/08/23 11:31:05;;;;;;;13.85;9.13;;;;;;;;;;5060293;28;20064;-77
2021/08/23 11:33:37;;;;;;;18.83;9.43;;;;;;;;;;5056315;28;20498;-77
2021/08/23 11:36:08;;;;;;;15.40;9.00;;;;;;;;;;5081987;28;20048;-76
2021/08/23 11:38:38;;;;;;;15.48;9.05;;;;;;;;;;5062442;28;20041;-80
2021/08/23 11:41:06;;;;;;;14.38;8.15;;;;;;;;;;5058630;28;20127;-79
2021/08/23 11:43:33;;;;;;;;;;;;;;;;;;5072221;28;20093;-78
2021/08/23 11:46:02;;;;;;;17.73;8.57;;;;;;;;;;5047799;28;19970;-79
2021/08/23 11:48:29;;;;;;;17.55;8.27;;;;;;;;;;5033586;28;20056;-78
2021/08/23 11:50:56;;;;;;;16.65;7.80;;;;;;;;;;5052479;28;20426;-79
2021/08/23 11:53:27;;;;;;;18.27;8.38;;;;;;;;;;5052631;28;20048;-79
2021/08/23 11:56:07;;;;;;;12.63;7.85;;;;;;;;;;5036414;28;20083;-77
2021/08/23 11:58:39;;;;;;;12.30;6.70;;;;;;;;;;5053781;28;20089;-79
2021/08/23 12:01:12;;;;;;;13.43;7.97;;;;;;;;;;5049739;28;20036;-78
2021/08/23 12:03:39;;;;;;;13.32;7.43;;;;;;;;;;5035594;28;20071;-79
2021/08/23 12:06:09;;;;;;;15.30;6.95;;;;;;;;;;5052695;28;20059;-79
2021/08/23 12:08:40;;;;;;;14.40;7.10;;;;;;;;;;5039916;28;20055;-79
2021/08/23 12:11:12;;;;;;;13.52;7.53;;;;;;;;;;4973742;28;20042;-78
2021/08/23 12:13:44;;;;;;;14.73;7.25;;;;;;;;;;5013384;28;20151;-81
2021/08/23 12:16:14;;;;;;;16.73;7.15;;;;;;;;;;5036798;28;21638;-83
2021/08/23 12:18:51;;;;;;;13.48;6.82;;;;;;;;;;5038261;28;21893;-82
2021/08/23 12:21:28;;;;;;;14.45;6.97;;;;;;;;;;5011679;28;20079;-83
2021/08/23 12:24:00;;;;;;;14.27;7.43;;;;;;;;;;5024886;28;20825;-85
2021/08/23 12:27:00;;;;;;;14.73;7.03;;;;;;;;;;5040884;28;20045;-86
2021/08/23 12:29:36;;;;;;;17.48;7.15;;;;;;;;;;5001218;28;20140;-85
2021/08/23 12:32:14;;;;;;;11.93;7.35;;;;;;;;;;5026245;28;20037;-83
2021/08/23 12:34:43;;;;;;;13.07;6.68;;;;;;;;;;5026532;28;20048;-85
2021/08/23 12:37:13;;;;;;;12.68;6.13;;;;;;;;;;5031205;28;20062;-86
2021/08/23 12:39:44;;;;;;;12.43;7.10;;;;;;;;;;5037641;28;20039;-91
2021/08/23 12:42:11;;;;;;;10.35;6.20;;;;;;;;;;5042413;28;20132;-85
2021/08/23 12:44:39;;;;;;;14.23;6.55;;;;;;;;;;5063536;28;20041;-82
2021/08/23 12:47:07;;;;;;;11.98;5.90;;;;;;;;;;5034938;28;20032;-82
2021/08/23 12:49:34;;;;;;;19.65;6.68;;;;;;;;;;5061799;28;20044;-80
2021/08/23 12:52:01;;;;;;;11.30;6.05;;;;;;;;;;5044084;28;20053;-83
2021/08/23 12:54:30;;;;;;;17.77;5.35;;;;;;;;;;5047189;28;20062;-88
2021/08/23 12:56:57;;;;;;;14.27;5.70;;;;;;;;;;5035498;28;20059;-80
2021/08/23 12:59:24;;;;;;;12.05;5.47;;;;;;;;;;5068573;28;20044;-80
2021/08/23 13:01:51;;;;;;;11.30;5.55;;;;;;;;;;5064133;28;20060;-77
2021/08/23 13:04:18;;;;;;;9.52;5.63;;;;;;;;;;5050164;28;20157;-74
2021/08/23 13:07:16;;;;;;;14.48;5.22;;;;;;;;;;5099041;27;20375;-81
2021/08/23 13:09:43;;;;;;;9.98;5.38;;;;;;;;;;5099155;28;20105;-74
2021/08/23 13:12:10;;;;;;;12.50;5.80;;;;;;;;;;5101904;28;20497;-75
2021/08/23 13:14:37;;;;;;;13.73;5.10;;;;;;;;;;5092166;28;20496;-75
2021/08/23 13:17:05;;;;;;;10.40;5.18;;;;;;;;;;5099791;28;20039;-74
2021/08/23 13:19:32;;;;;;;11.15;4.93;;;;;;;;;;5095317;28;20047;-74
2021/08/23 13:22:00;;;;;;;11.65;5.65;;;;;;;;;;5098141;28;20055;-73
2021/08/23 13:24:27;;;;;;;10.70;5.40;;;;;;;;;;5100871;28;20047;-79
2021/08/23 13:26:57;;;;;;;17.33;5.85;;;;;;;;;;5097309;28;20064;-73
2021/08/23 13:29:24;;;;;;;11.15;5.43;;;;;;;;;;5098979;28;20036;-77
2021/08/23 13:31:50;;;;;;;11.95;5.35;;;;;;;;;;5099609;28;20605;-75
